Terminal Aerodrome Forecast
Issued by NWS

Home | Current Version | Previous Version | Graphics & Text | Print | Product List | Glossary On
Versions: 1 2 3 4 5 6 7 8 9 10 11 12 13 14 15 16 17 18 19
287
FTUS43 KGRB 160350 AAA
TAFCWA
TAF AMD
KCWA 160350Z 1604/1624 04005KT P6SM SCT015 OVC035
      TEMPO 1604/1607 3SM -SHSN BKN015
     FM161700 34007KT P6SM BKN030
     FM161800 32007KT P6SM SCT035
      AMD LTD TO CLD VIS AND WIND TIL 161200=

USA.gov is the U.S. government's official web portal to all federal, state and local government web resources and services.